Petit Prince — FN8776 — position and weather

sailwx.info

Track history (hours):
 
Tides and Currents Weather Stations Pressure Air Temp Water Temp Dewpoint Dewpoint Depression Visibility Wind Speed Wind Dir Waves Ship Positions

Petit Prince

Last reported at 2018-Jan-12 14:44 UTC. Time now 2018-Feb-24 10:18 UTC.
Position N 38°39' W 009°06'.
Warning: this ship's position is 42 days out of date.

Length 11 m.

Type: Pleasure craft. MMSI: 227052850.

Date/timePositionNaut miles runAvg speedWind from/ knotsBaromVisibWave heightAir tempDewpointWater temp
2018-Jan-12 14:44N 38°39' W 009°06'0 0.0
2018-Jan-12 13:20N 38°39' W 009°06'0 0.0
2018-Jan-12 12:53N 38°39' W 009°06'0 0.0
2018-Jan-12 11:17N 38°39' W 009°06'0 0.0
2018-Jan-12 08:59N 38°39' W 009°06'0 0.0
2018-Jan-12 08:26N 38°39' W 009°06'0 0.0
2018-Jan-12 07:44N 38°39' W 009°06'0 0.0
2018-Jan-12 07:14N 38°39' W 009°06'0 0.0
2018-Jan-12 06:56N 38°39' W 009°06'0 0.0
2018-Jan-12 06:14N 38°39' W 009°06'0 0.0
2018-Jan-12 05:59N 38°39' W 009°06'0 0.0
2018-Jan-12 05:14N 38°39' W 009°06'0 0.0
2018-Jan-12 04:50N 38°39' W 009°06'0 0.0
2018-Jan-12 04:26N 38°39' W 009°06'0 0.0
2018-Jan-12 03:56N 38°39' W 009°06'0 0.0
2018-Jan-12 03:23N 38°39' W 009°06'0 0.0
2018-Jan-12 02:26N 38°39' W 009°06'0 0.0
2018-Jan-11 23:56N 38°39' W 009°06'0 0.0
2018-Jan-11 23:26N 38°39' W 009°06'0 0.0
2018-Jan-11 20:11N 38°39' W 009°06'0 0.0
2018-Jan-11 16:44N 38°39' W 009°06'0 0.0
2018-Jan-11 16:20N 38°39' W 009°06'1 1.9
2018-Jan-11 15:52N 38°39' W 009°05'1 2.7
2018-Jan-11 15:30N 38°38' W 009°04'1 2.5
2018-Jan-11 14:55N 38°39' W 009°06'0 0.5
2018-Jan-11 14:30N 38°39' W 009°06'0 0.1
2018-Jan-11 13:58N 38°39' W 009°06'0 0.2
2018-Jan-11 13:21N 38°39' W 009°06'0 0.0
2018-Jan-11 09:44N 38°39' W 009°06'0 0.0
2018-Jan-11 07:39N 38°39' W 009°06'0 0.0
2018-Jan-11 07:30N 38°39' W 009°06'0 0.0
2018-Jan-11 06:27N 38°39' W 009°06'0 0.0
2018-Jan-11 05:57N 38°39' W 009°06'0 0.0
2018-Jan-11 05:27N 38°39' W 009°06'0 0.0
2018-Jan-11 04:51N 38°39' W 009°06'0 0.0
2018-Jan-11 04:30N 38°39' W 009°06'0 0.0
2018-Jan-11 03:48N 38°39' W 009°06'0 0.0
2018-Jan-11 03:15N 38°39' W 009°06'0 0.0
2018-Jan-11 03:00N 38°39' W 009°06'0 0.0
2018-Jan-11 01:51N 38°39' W 009°06'0 0.0
2018-Jan-11 00:33N 38°39' W 009°06'0 0.0
2018-Jan-11 00:30N 38°39' W 009°06'0 0.0
2018-Jan-10 23:54N 38°39' W 009°06'0 0.0
2018-Jan-10 22:30N 38°39' W 009°06'0 0.0
2018-Jan-10 19:03N 38°39' W 009°06'1 4.9
2018-Jan-10 18:55N 38°40' W 009°06'2 2.5
2018-Jan-10 18:16N 38°41' W 009°07'1 3.8
2018-Jan-10 17:55N 38°41' W 009°05'2 4.8
2018-Jan-10 17:24N 38°41' W 009°02'0 0.1
2018-Jan-10 13:25N 38°41' W 009°02'0 0.1
2018-Jan-10 12:59N 38°41' W 009°02'2 4.5
2018-Jan-10 12:27N 38°41' W 009°05'1 2.9
2018-Jan-10 11:59N 38°41' W 009°07'1 1.6
2018-Jan-10 11:29N 38°41' W 009°08'2 1.7
2018-Jan-10 10:05N 38°39' W 009°06'0 0.0
2018-Jan-10 09:53N 38°39' W 009°06'0 0.0
2018-Jan-10 07:29N 38°39' W 009°06'0 0.0
2018-Jan-10 06:53N 38°39' W 009°06'0 0.0
2018-Jan-10 06:17N 38°39' W 009°06'0 0.0
2018-Jan-10 05:59N 38°39' W 009°06'0 0.0
2018-Jan-10 05:29N 38°39' W 009°06'0 0.0
2018-Jan-10 04:53N 38°39' W 009°06'0 0.0
2018-Jan-10 04:29N 38°39' W 009°06'0 0.0
2018-Jan-10 03:53N 38°39' W 009°06'0 0.0
2018-Jan-10 03:29N 38°39' W 009°06'0 0.0
2018-Jan-10 02:59N 38°39' W 009°06'0 0.0
2018-Jan-10 02:23N 38°39' W 009°06'0 0.0
2018-Jan-10 01:59N 38°39' W 009°06'0 0.0
2018-Jan-10 01:23N 38°39' W 009°06'0 0.0
2018-Jan-10 00:41N 38°39' W 009°06'0 0.0
2018-Jan-10 00:23N 38°39' W 009°06'0 0.0
2018-Jan-09 23:59N 38°39' W 009°06'0 0.0
2018-Jan-09 23:29N 38°39' W 009°06'0 0.0
2018-Jan-09 22:53N 38°39' W 009°06'0 0.0
2018-Jan-09 22:29N 38°39' W 009°06'0 0.0
2018-Jan-09 21:59N 38°39' W 009°06'0 0.0
2018-Jan-09 17:50N 38°39' W 009°06'0 0.0
2018-Jan-09 17:05N 38°39' W 009°06'0 0.0
2018-Jan-09 16:44N 38°39' W 009°06'0 0.0
2018-Jan-09 16:23N 38°39' W 009°06'0 0.0
2018-Jan-09 15:47N 38°39' W 009°06'0 0.0
2018-Jan-09 15:20N 38°39' W 009°06'0 0.0
2018-Jan-09 14:56N 38°39' W 009°06'0 0.0
2018-Jan-09 13:23N 38°39' W 009°06'0 0.0
2018-Jan-09 12:56N 38°39' W 009°06'0 0.0
2018-Jan-09 12:29N 38°39' W 009°06'0 0.0
2018-Jan-09 11:53N 38°39' W 009°06'0 0.0
2018-Jan-09 11:29N 38°39' W 009°06'0 0.0
2018-Jan-09 10:59N 38°39' W 009°06'0 0.0
2018-Jan-09 10:29N 38°39' W 009°06'0 0.0
2018-Jan-09 09:35N 38°39' W 009°06'0 0.0
2018-Jan-09 09:11N 38°39' W 009°06'0 0.0
2018-Jan-09 08:53N 38°39' W 009°06'0 0.0
2018-Jan-09 08:23N 38°39' W 009°06'0 0.0
2018-Jan-09 07:59N 38°39' W 009°06'0 0.0
2018-Jan-09 07:14N 38°39' W 009°06'0 0.0
2018-Jan-09 06:59N 38°39' W 009°06'0 0.0
2018-Jan-09 06:17N 38°39' W 009°06'0 0.0
2018-Jan-09 04:35N 38°39' W 009°06'0 0.0
2018-Jan-09 04:23N 38°39' W 009°06'0 0.0
2018-Jan-09 02:56N 38°39' W 009°06'0 0.0
2018-Jan-09 02:23N 38°39' W 009°06'0 0.0
2018-Jan-09 01:41N 38°39' W 009°06'0 0.0
2018-Jan-09 01:29N 38°39' W 009°06'0 0.0
2018-Jan-09 00:56N 38°39' W 009°06'0 0.0
2018-Jan-09 00:29N 38°39' W 009°06'0 0.0
2018-Jan-08 23:59N 38°39' W 009°06'0 0.0
2018-Jan-08 23:23N 38°39' W 009°06'0 0.0
2018-Jan-08 22:59N 38°39' W 009°06'0 0.0
2018-Jan-08 22:05N 38°39' W 009°06'0 0.1
2018-Jan-08 21:59N 38°39' W 009°06'0 0.0
2018-Jan-08 21:29N 38°39' W 009°06'0 0.0
2018-Jan-08 18:17N 38°39' W 009°06'0 0.0
2018-Jan-08 17:59N 38°39' W 009°06'0 0.0
2018-Jan-08 17:14N 38°39' W 009°06'0 0.0
2018-Jan-08 15:26N 38°39' W 009°06'0 0.0
2018-Jan-08 14:35N 38°39' W 009°06'0 0.0
2018-Jan-08 14:11N 38°39' W 009°06'0 0.0
2018-Jan-08 13:59N 38°39' W 009°06'0 0.0
2018-Jan-08 13:11N 38°39' W 009°06'0 0.0
2018-Jan-08 12:41N 38°39' W 009°06'0 0.0
2018-Jan-08 12:29N 38°39' W 009°06'0 0.0
2018-Jan-08 11:59N 38°39' W 009°06'0 0.0
2018-Jan-08 11:17N 38°39' W 009°06'0 0.0
2018-Jan-08 10:53N 38°39' W 009°06'0 0.0
2018-Jan-08 10:17N 38°39' W 009°06'0 0.0
2018-Jan-08 09:53N 38°39' W 009°06'0 0.0
2018-Jan-08 09:29N 38°39' W 009°06'0 0.0
2018-Jan-08 08:47N 38°39' W 009°06'0 0.0
2018-Jan-08 08:29N 38°39' W 009°06'0 0.0
2018-Jan-08 07:59N 38°39' W 009°06'0 0.0
2018-Jan-08 07:29N 38°39' W 009°06'0 0.0
2018-Jan-08 06:59N 38°39' W 009°06'0 0.0
2018-Jan-08 06:17N 38°39' W 009°06'0 0.0
2018-Jan-08 05:59N 38°39' W 009°06'0 0.0
2018-Jan-08 05:20N 38°39' W 009°06'0 0.0
2018-Jan-08 04:53N 38°39' W 009°06'0 0.0
2018-Jan-08 04:23N 38°39' W 009°06'0 0.0
2018-Jan-08 03:41N 38°39' W 009°06'0 0.0
2018-Jan-08 03:29N 38°39' W 009°06'0 0.0
2018-Jan-08 02:59N 38°39' W 009°06'0 0.0
2018-Jan-08 02:23N 38°39' W 009°06'0 0.0
2018-Jan-08 01:53N 38°39' W 009°06'0 0.0
2018-Jan-08 01:29N 38°39' W 009°06'0 0.0
2018-Jan-08 00:59N 38°39' W 009°06'0 0.0
2018-Jan-08 00:23N 38°39' W 009°06'0 0.0
2018-Jan-07 23:53N 38°39' W 009°06'0 0.0
2018-Jan-07 23:29N 38°39' W 009°06'0 0.0
2018-Jan-07 22:53N 38°39' W 009°06'0 0.0
2018-Jan-07 22:29N 38°39' W 009°06'0 0.0
2018-Jan-07 21:59N 38°39' W 009°06'0 0.0
2018-Jan-07 21:23N 38°39' W 009°06'0 0.0
2018-Jan-07 20:59N 38°39' W 009°06'0 0.0
2018-Jan-07 20:29N 38°39' W 009°06'0 0.0
2018-Jan-07 19:50N 38°39' W 009°06'0 0.0
2018-Jan-07 19:17N 38°39' W 009°06'0 0.0
2018-Jan-07 18:59N 38°39' W 009°06'0 0.0
2018-Jan-07 18:23N 38°39' W 009°06'0 0.0
2018-Jan-07 17:41N 38°39' W 009°06'0 0.0
2018-Jan-07 17:23N 38°39' W 009°06'0 0.0
2018-Jan-07 16:59N 38°39' W 009°06'0 0.0
2018-Jan-07 16:29N 38°39' W 009°06'0 0.0
2018-Jan-07 15:53N 38°39' W 009°06'0 0.0
2018-Jan-07 15:26N 38°39' W 009°06'0 0.0
2018-Jan-07 14:59N 38°39' W 009°06'0 0.0
2018-Jan-07 14:17N 38°39' W 009°06'0 0.0
2018-Jan-07 13:59N 38°39' W 009°06'0 0.0
2018-Jan-07 13:17N 38°39' W 009°06'0 0.0
2018-Jan-07 12:47N 38°39' W 009°06'0 0.0
2018-Jan-07 12:29N 38°39' W 009°06'0 0.0
2018-Jan-07 11:59N 38°39' W 009°06'0 0.0
2018-Jan-07 11:23N 38°39' W 009°06'0 0.0
2018-Jan-07 10:59N 38°39' W 009°06'0 0.0
2018-Jan-07 10:29N 38°39' W 009°06'0 0.0
2018-Jan-07 09:59N 38°39' W 009°06'0 0.0
2018-Jan-07 09:23N 38°39' W 009°06'0 0.0
2018-Jan-07 08:59N 38°39' W 009°06'0 0.0
2018-Jan-07 08:20N 38°39' W 009°06'0 0.0
2018-Jan-07 07:59N 38°39' W 009°06'0 0.0
2018-Jan-07 07:29N 38°39' W 009°06'0 0.0
2018-Jan-07 06:59N 38°39' W 009°06'0 0.0
2018-Jan-07 06:29N 38°39' W 009°06'0 0.0
2018-Jan-07 05:59N 38°39' W 009°06'0 0.0
2018-Jan-07 05:29N 38°39' W 009°06'0 0.0
2018-Jan-07 04:59N 38°39' W 009°06'0 0.0
2018-Jan-07 04:29N 38°39' W 009°06'0 0.0
2018-Jan-07 03:53N 38°39' W 009°06'0 0.0
2018-Jan-07 03:26N 38°39' W 009°06'0 0.0
2018-Jan-07 02:56N 38°39' W 009°06'0 0.0
2018-Jan-07 02:29N 38°39' W 009°06'0 0.0
2018-Jan-07 01:59N 38°39' W 009°06'0 0.0
2018-Jan-07 01:23N 38°39' W 009°06'0 0.0
2018-Jan-07 00:17N 38°39' W 009°06'0 0.0
2018-Jan-06 23:47N 38°39' W 009°06'0 0.0
2018-Jan-06 23:29N 38°39' W 009°06'0 0.0
2018-Jan-06 22:59N 38°39' W 009°06'0 0.0
2018-Jan-06 21:23N 38°39' W 009°06'0 0.0
2018-Jan-06 20:08N 38°39' W 009°06'0 0.0
2018-Jan-06 19:41N 38°39' W 009°06'0 0.0
2018-Jan-06 19:11N 38°39' W 009°06'0 0.0
2018-Jan-06 18:41N 38°39' W 009°06'0 0.0
2018-Jan-06 18:11N 38°39' W 009°06'0 0.0
2018-Jan-06 17:59N 38°39' W 009°06'0 0.0
2018-Jan-06 17:17N 38°39' W 009°06'0 0.0
2018-Jan-06 16:53N 38°39' W 009°06'0 0.0
2018-Jan-06 16:20N 38°39' W 009°06'0 0.0
2018-Jan-06 15:53N 38°39' W 009°06'0 0.0
2018-Jan-06 15:21N 38°39' W 009°06'0 0.0
2018-Jan-04 21:24N 38°39' W 009°06'0 0.0
2018-Jan-04 20:51N 38°39' W 009°06'0 0.0
2018-Jan-04 20:30N 38°39' W 009°06'0 0.0
2018-Jan-04 19:03N 38°39' W 009°06'0 0.0
2018-Jan-04 18:36N 38°39' W 009°06'0 0.0
2018-Jan-04 18:30N 38°39' W 009°06'0 0.0
2018-Jan-04 18:00N 38°39' W 009°06'0 0.0
2018-Jan-04 17:30N 38°39' W 009°06'0 0.0
2018-Jan-04 15:12N 38°39' W 009°06'0 0.0
2018-Jan-04 14:44N 38°39' W 009°06'0 0.0
2018-Jan-04 14:07N 38°39' W 009°06'0 0.0
2018-Jan-04 13:55N 38°39' W 009°06'0 0.0
2018-Jan-04 13:25N 38°39' W 009°06'0 0.0
2018-Jan-04 12:37N 38°39' W 009°06'0 0.0
2018-Jan-04 11:49N 38°39' W 009°06'0 0.0
2018-Jan-04 11:28N 38°39' W 009°06'0 0.0
2018-Jan-04 10:40N 38°39' W 009°06'0 0.0
2018-Jan-04 10:13N 38°39' W 009°06'0 0.0
2018-Jan-04 09:55N 38°39' W 009°06'0 0.0
2018-Jan-04 07:43N 38°39' W 009°06'0 0.0
2018-Jan-04 07:22N 38°39' W 009°06'0 0.0
2018-Jan-04 06:46N 38°39' W 009°06'0 0.0
2018-Jan-04 06:19N 38°39' W 009°06'0 0.0
2018-Jan-04 05:58N 38°39' W 009°06'0 0.0
2018-Jan-04 05:25N 38°39' W 009°06'0 0.0
2018-Jan-04 00:07N 38°39' W 009°06'0 0.0
2018-Jan-03 23:52N 38°39' W 009°06'0 0.0
2018-Jan-03 22:22N 38°39' W 009°06'0 0.0
2018-Jan-03 21:43N 38°39' W 009°06'0 0.0
2018-Jan-03 21:25N 38°39' W 009°06'0 0.0
2018-Jan-03 20:01N 38°39' W 009°06'0 0.0
2018-Jan-03 19:37N 38°39' W 009°06'0 0.0
2018-Jan-03 19:25N 38°39' W 009°06'0 0.0
2018-Jan-03 18:58N 38°39' W 009°06'0 0.0
2018-Jan-03 17:13N 38°39' W 009°06'0 0.0
2018-Jan-03 16:58N 38°39' W 009°06'0 0.0
2018-Jan-03 16:25N 38°39' W 009°06'0 0.0
2018-Jan-03 13:20N 38°39' W 009°06'1 2.4
2018-Jan-03 13:00N 38°39' W 009°06'3 5.3
2018-Jan-03 12:22N 38°41' W 009°10'3 7.1
2018-Jan-03 11:54N 38°41' W 009°14'3 6.4
2018-Jan-03 11:30N 38°41' W 009°17'3 6.2
2018-Jan-03 10:58N 38°41' W 009°21'3 5.5
2018-Jan-03 10:29N 38°42' W 009°24'0 0.9
2018-Jan-03 10:00N 38°42' W 009°25'0 0.0
2018-Jan-03 09:30N 38°42' W 009°25'0 0.0
2018-Jan-03 08:54N 38°42' W 009°25'0 0.0
2018-Jan-03 07:33N 38°42' W 009°25'0 0.0
2018-Jan-03 07:18N 38°42' W 009°25'0 0.0
2018-Jan-03 06:48N 38°42' W 009°25'0 0.0
2018-Jan-03 06:24N 38°42' W 009°25'0 0.0
2018-Jan-03 05:54N 38°42' W 009°25'0 0.0
2018-Jan-03 05:18N 38°42' W 009°25'0 0.0
2018-Jan-03 04:48N 38°42' W 009°25'0 0.0
2018-Jan-03 04:03N 38°42' W 009°25'0 0.0
2018-Jan-03 03:48N 38°42' W 009°25'0 0.0
2018-Jan-03 03:12N 38°42' W 009°25'0 0.0
2018-Jan-03 02:54N 38°42' W 009°25'0 0.0
2018-Jan-03 01:54N 38°42' W 009°25'0 0.0
2018-Jan-03 01:15N 38°42' W 009°25'0 0.0
2018-Jan-03 00:06N 38°42' W 009°25'0 0.0
2018-Jan-03 00:00N 38°42' W 009°25'0 0.0
2018-Jan-02 23:12N 38°42' W 009°25'0 0.0
2018-Jan-02 22:42N 38°42' W 009°25'0 0.0
2018-Jan-02 22:30N 38°42' W 009°25'0 0.0
2018-Jan-02 21:06N 38°42' W 009°25'0 0.0
2018-Jan-02 21:00N 38°42' W 009°25'0 0.0
2018-Jan-02 20:12N 38°42' W 009°25'0 0.0
2018-Jan-02 19:54N 38°42' W 009°25'0 0.0
2018-Jan-02 19:30N 38°42' W 009°25'0 0.0
2018-Jan-02 18:33N 38°42' W 009°25'0 0.1
2018-Jan-02 18:27N 38°42' W 009°25'0 0.0
2018-Jan-02 16:48N 38°42' W 009°25'0 0.0
2018-Jan-02 15:48N 38°42' W 009°25'0 0.0
2018-Jan-02 15:09N 38°42' W 009°25'0 0.0
2018-Jan-02 14:48N 38°42' W 009°25'  
Track history (hours):
 
Tides and Currents Weather Stations Pressure Air Temp Water Temp Dewpoint Dewpoint Depression Visibility Wind Speed Wind Dir Waves Ship Positions

Petit Prince

Last reported at 2018-Jan-12 14:44 UTC. Time now 2018-Feb-24 10:18 UTC.
Position N 38°39' W 009°06'.
Warning: this ship's position is 42 days out of date.

Length 11 m.

Type: Pleasure craft. MMSI: 227052850.

Date/timePositionNaut miles runAvg speedWind from/ knotsBaromVisibWave heightAir tempDewpointWater temp
2018-Jan-12 14:44N 38°39' W 009°06'0 0.0
2018-Jan-12 13:20N 38°39' W 009°06'0 0.0
2018-Jan-12 12:53N 38°39' W 009°06'0 0.0
2018-Jan-12 11:17N 38°39' W 009°06'0 0.0
2018-Jan-12 08:59N 38°39' W 009°06'0 0.0
2018-Jan-12 08:26N 38°39' W 009°06'0 0.0
2018-Jan-12 07:44N 38°39' W 009°06'0 0.0
2018-Jan-12 07:14N 38°39' W 009°06'0 0.0
2018-Jan-12 06:56N 38°39' W 009°06'0 0.0
2018-Jan-12 06:14N 38°39' W 009°06'0 0.0
2018-Jan-12 05:59N 38°39' W 009°06'0 0.0
2018-Jan-12 05:14N 38°39' W 009°06'0 0.0
2018-Jan-12 04:50N 38°39' W 009°06'0 0.0
2018-Jan-12 04:26N 38°39' W 009°06'0 0.0
2018-Jan-12 03:56N 38°39' W 009°06'0 0.0
2018-Jan-12 03:23N 38°39' W 009°06'0 0.0
2018-Jan-12 02:26N 38°39' W 009°06'0 0.0
2018-Jan-11 23:56N 38°39' W 009°06'0 0.0
2018-Jan-11 23:26N 38°39' W 009°06'0 0.0
2018-Jan-11 20:11N 38°39' W 009°06'0 0.0
2018-Jan-11 16:44N 38°39' W 009°06'0 0.0
2018-Jan-11 16:20N 38°39' W 009°06'1 1.9
2018-Jan-11 15:52N 38°39' W 009°05'1 2.7
2018-Jan-11 15:30N 38°38' W 009°04'1 2.5
2018-Jan-11 14:55N 38°39' W 009°06'0 0.5
2018-Jan-11 14:30N 38°39' W 009°06'0 0.1
2018-Jan-11 13:58N 38°39' W 009°06'0 0.2
2018-Jan-11 13:21N 38°39' W 009°06'0 0.0
2018-Jan-11 09:44N 38°39' W 009°06'0 0.0
2018-Jan-11 07:39N 38°39' W 009°06'0 0.0
2018-Jan-11 07:30N 38°39' W 009°06'0 0.0
2018-Jan-11 06:27N 38°39' W 009°06'0 0.0
2018-Jan-11 05:57N 38°39' W 009°06'0 0.0
2018-Jan-11 05:27N 38°39' W 009°06'0 0.0
2018-Jan-11 04:51N 38°39' W 009°06'0 0.0
2018-Jan-11 04:30N 38°39' W 009°06'0 0.0
2018-Jan-11 03:48N 38°39' W 009°06'0 0.0
2018-Jan-11 03:15N 38°39' W 009°06'0 0.0
2018-Jan-11 03:00N 38°39' W 009°06'0 0.0
2018-Jan-11 01:51N 38°39' W 009°06'0 0.0
2018-Jan-11 00:33N 38°39' W 009°06'0 0.0
2018-Jan-11 00:30N 38°39' W 009°06'0 0.0
2018-Jan-10 23:54N 38°39' W 009°06'0 0.0
2018-Jan-10 22:30N 38°39' W 009°06'0 0.0
2018-Jan-10 19:03N 38°39' W 009°06'1 4.9
2018-Jan-10 18:55N 38°40' W 009°06'2 2.5
2018-Jan-10 18:16N 38°41' W 009°07'1 3.8
2018-Jan-10 17:55N 38°41' W 009°05'2 4.8
2018-Jan-10 17:24N 38°41' W 009°02'0 0.1
2018-Jan-10 13:25N 38°41' W 009°02'0 0.1
2018-Jan-10 12:59N 38°41' W 009°02'2 4.5
2018-Jan-10 12:27N 38°41' W 009°05'1 2.9
2018-Jan-10 11:59N 38°41' W 009°07'1 1.6
2018-Jan-10 11:29N 38°41' W 009°08'2 1.7
2018-Jan-10 10:05N 38°39' W 009°06'0 0.0
2018-Jan-10 09:53N 38°39' W 009°06'0 0.0
2018-Jan-10 07:29N 38°39' W 009°06'0 0.0
2018-Jan-10 06:53N 38°39' W 009°06'0 0.0
2018-Jan-10 06:17N 38°39' W 009°06'0 0.0
2018-Jan-10 05:59N 38°39' W 009°06'0 0.0
2018-Jan-10 05:29N 38°39' W 009°06'0 0.0
2018-Jan-10 04:53N 38°39' W 009°06'0 0.0
2018-Jan-10 04:29N 38°39' W 009°06'0 0.0
2018-Jan-10 03:53N 38°39' W 009°06'0 0.0
2018-Jan-10 03:29N 38°39' W 009°06'0 0.0
2018-Jan-10 02:59N 38°39' W 009°06'0 0.0
2018-Jan-10 02:23N 38°39' W 009°06'0 0.0
2018-Jan-10 01:59N 38°39' W 009°06'0 0.0
2018-Jan-10 01:23N 38°39' W 009°06'0 0.0
2018-Jan-10 00:41N 38°39' W 009°06'0 0.0
2018-Jan-10 00:23N 38°39' W 009°06'0 0.0
2018-Jan-09 23:59N 38°39' W 009°06'0 0.0
2018-Jan-09 23:29N 38°39' W 009°06'0 0.0
2018-Jan-09 22:53N 38°39' W 009°06'0 0.0
2018-Jan-09 22:29N 38°39' W 009°06'0 0.0
2018-Jan-09 21:59N 38°39' W 009°06'0 0.0
2018-Jan-09 17:50N 38°39' W 009°06'0 0.0
2018-Jan-09 17:05N 38°39' W 009°06'0 0.0
2018-Jan-09 16:44N 38°39' W 009°06'0 0.0
2018-Jan-09 16:23N 38°39' W 009°06'0 0.0
2018-Jan-09 15:47N 38°39' W 009°06'0 0.0
2018-Jan-09 15:20N 38°39' W 009°06'0 0.0
2018-Jan-09 14:56N 38°39' W 009°06'0 0.0
2018-Jan-09 13:23N 38°39' W 009°06'0 0.0
2018-Jan-09 12:56N 38°39' W 009°06'0 0.0
2018-Jan-09 12:29N 38°39' W 009°06'0 0.0
2018-Jan-09 11:53N 38°39' W 009°06'0 0.0
2018-Jan-09 11:29N 38°39' W 009°06'0 0.0
2018-Jan-09 10:59N 38°39' W 009°06'0 0.0
2018-Jan-09 10:29N 38°39' W 009°06'0 0.0
2018-Jan-09 09:35N 38°39' W 009°06'0 0.0
2018-Jan-09 09:11N 38°39' W 009°06'0 0.0
2018-Jan-09 08:53N 38°39' W 009°06'0 0.0
2018-Jan-09 08:23N 38°39' W 009°06'0 0.0
2018-Jan-09 07:59N 38°39' W 009°06'0 0.0
2018-Jan-09 07:14N 38°39' W 009°06'0 0.0
2018-Jan-09 06:59N 38°39' W 009°06'0 0.0
2018-Jan-09 06:17N 38°39' W 009°06'0 0.0
2018-Jan-09 04:35N 38°39' W 009°06'0 0.0
2018-Jan-09 04:23N 38°39' W 009°06'0 0.0
2018-Jan-09 02:56N 38°39' W 009°06'0 0.0
2018-Jan-09 02:23N 38°39' W 009°06'0 0.0
2018-Jan-09 01:41N 38°39' W 009°06'0 0.0
2018-Jan-09 01:29N 38°39' W 009°06'0 0.0
2018-Jan-09 00:56N 38°39' W 009°06'0 0.0
2018-Jan-09 00:29N 38°39' W 009°06'0 0.0
2018-Jan-08 23:59N 38°39' W 009°06'0 0.0
2018-Jan-08 23:23N 38°39' W 009°06'0 0.0
2018-Jan-08 22:59N 38°39' W 009°06'0 0.0
2018-Jan-08 22:05N 38°39' W 009°06'0 0.1
2018-Jan-08 21:59N 38°39' W 009°06'0 0.0
2018-Jan-08 21:29N 38°39' W 009°06'0 0.0
2018-Jan-08 18:17N 38°39' W 009°06'0 0.0
2018-Jan-08 17:59N 38°39' W 009°06'0 0.0
2018-Jan-08 17:14N 38°39' W 009°06'0 0.0
2018-Jan-08 15:26N 38°39' W 009°06'0 0.0
2018-Jan-08 14:35N 38°39' W 009°06'0 0.0
2018-Jan-08 14:11N 38°39' W 009°06'0 0.0
2018-Jan-08 13:59N 38°39' W 009°06'0 0.0
2018-Jan-08 13:11N 38°39' W 009°06'0 0.0
2018-Jan-08 12:41N 38°39' W 009°06'0 0.0
2018-Jan-08 12:29N 38°39' W 009°06'0 0.0
2018-Jan-08 11:59N 38°39' W 009°06'0 0.0
2018-Jan-08 11:17N 38°39' W 009°06'0 0.0
2018-Jan-08 10:53N 38°39' W 009°06'0 0.0
2018-Jan-08 10:17N 38°39' W 009°06'0 0.0
2018-Jan-08 09:53N 38°39' W 009°06'0 0.0
2018-Jan-08 09:29N 38°39' W 009°06'0 0.0
2018-Jan-08 08:47N 38°39' W 009°06'0 0.0
2018-Jan-08 08:29N 38°39' W 009°06'0 0.0
2018-Jan-08 07:59N 38°39' W 009°06'0 0.0
2018-Jan-08 07:29N 38°39' W 009°06'0 0.0
2018-Jan-08 06:59N 38°39' W 009°06'0 0.0
2018-Jan-08 06:17N 38°39' W 009°06'0 0.0
2018-Jan-08 05:59N 38°39' W 009°06'0 0.0
2018-Jan-08 05:20N 38°39' W 009°06'0 0.0
2018-Jan-08 04:53N 38°39' W 009°06'0 0.0
2018-Jan-08 04:23N 38°39' W 009°06'0 0.0
2018-Jan-08 03:41N 38°39' W 009°06'0 0.0
2018-Jan-08 03:29N 38°39' W 009°06'0 0.0
2018-Jan-08 02:59N 38°39' W 009°06'0 0.0
2018-Jan-08 02:23N 38°39' W 009°06'0 0.0
2018-Jan-08 01:53N 38°39' W 009°06'0 0.0
2018-Jan-08 01:29N 38°39' W 009°06'0 0.0
2018-Jan-08 00:59N 38°39' W 009°06'0 0.0
2018-Jan-08 00:23N 38°39' W 009°06'0 0.0
2018-Jan-07 23:53N 38°39' W 009°06'0 0.0
2018-Jan-07 23:29N 38°39' W 009°06'0 0.0
2018-Jan-07 22:53N 38°39' W 009°06'0 0.0
2018-Jan-07 22:29N 38°39' W 009°06'0 0.0
2018-Jan-07 21:59N 38°39' W 009°06'0 0.0
2018-Jan-07 21:23N 38°39' W 009°06'0 0.0
2018-Jan-07 20:59N 38°39' W 009°06'0 0.0
2018-Jan-07 20:29N 38°39' W 009°06'0 0.0
2018-Jan-07 19:50N 38°39' W 009°06'0 0.0
2018-Jan-07 19:17N 38°39' W 009°06'0 0.0
2018-Jan-07 18:59N 38°39' W 009°06'0 0.0
2018-Jan-07 18:23N 38°39' W 009°06'0 0.0
2018-Jan-07 17:41N 38°39' W 009°06'0 0.0
2018-Jan-07 17:23N 38°39' W 009°06'0 0.0
2018-Jan-07 16:59N 38°39' W 009°06'0 0.0
2018-Jan-07 16:29N 38°39' W 009°06'0 0.0
2018-Jan-07 15:53N 38°39' W 009°06'0 0.0
2018-Jan-07 15:26N 38°39' W 009°06'0 0.0
2018-Jan-07 14:59N 38°39' W 009°06'0 0.0
2018-Jan-07 14:17N 38°39' W 009°06'0 0.0
2018-Jan-07 13:59N 38°39' W 009°06'0 0.0
2018-Jan-07 13:17N 38°39' W 009°06'0 0.0
2018-Jan-07 12:47N 38°39' W 009°06'0 0.0
2018-Jan-07 12:29N 38°39' W 009°06'0 0.0
2018-Jan-07 11:59N 38°39' W 009°06'0 0.0
2018-Jan-07 11:23N 38°39' W 009°06'0 0.0
2018-Jan-07 10:59N 38°39' W 009°06'0 0.0
2018-Jan-07 10:29N 38°39' W 009°06'0 0.0
2018-Jan-07 09:59N 38°39' W 009°06'0 0.0
2018-Jan-07 09:23N 38°39' W 009°06'0 0.0
2018-Jan-07 08:59N 38°39' W 009°06'0 0.0
2018-Jan-07 08:20N 38°39' W 009°06'0 0.0
2018-Jan-07 07:59N 38°39' W 009°06'0 0.0
2018-Jan-07 07:29N 38°39' W 009°06'0 0.0
2018-Jan-07 06:59N 38°39' W 009°06'0 0.0
2018-Jan-07 06:29N 38°39' W 009°06'0 0.0
2018-Jan-07 05:59N 38°39' W 009°06'0 0.0
2018-Jan-07 05:29N 38°39' W 009°06'0 0.0
2018-Jan-07 04:59N 38°39' W 009°06'0 0.0
2018-Jan-07 04:29N 38°39' W 009°06'0 0.0
2018-Jan-07 03:53N 38°39' W 009°06'0 0.0
2018-Jan-07 03:26N 38°39' W 009°06'0 0.0
2018-Jan-07 02:56N 38°39' W 009°06'0 0.0
2018-Jan-07 02:29N 38°39' W 009°06'0 0.0
2018-Jan-07 01:59N 38°39' W 009°06'0 0.0
2018-Jan-07 01:23N 38°39' W 009°06'0 0.0
2018-Jan-07 00:17N 38°39' W 009°06'0 0.0
2018-Jan-06 23:47N 38°39' W 009°06'0 0.0
2018-Jan-06 23:29N 38°39' W 009°06'0 0.0
2018-Jan-06 22:59N 38°39' W 009°06'0 0.0
2018-Jan-06 21:23N 38°39' W 009°06'0 0.0
2018-Jan-06 20:08N 38°39' W 009°06'0 0.0
2018-Jan-06 19:41N 38°39' W 009°06'0 0.0
2018-Jan-06 19:11N 38°39' W 009°06'0 0.0
2018-Jan-06 18:41N 38°39' W 009°06'0 0.0
2018-Jan-06 18:11N 38°39' W 009°06'0 0.0
2018-Jan-06 17:59N 38°39' W 009°06'0 0.0
2018-Jan-06 17:17N 38°39' W 009°06'0 0.0
2018-Jan-06 16:53N 38°39' W 009°06'0 0.0
2018-Jan-06 16:20N 38°39' W 009°06'0 0.0
2018-Jan-06 15:53N 38°39' W 009°06'0 0.0
2018-Jan-06 15:21N 38°39' W 009°06'0 0.0
2018-Jan-04 21:24N 38°39' W 009°06'0 0.0
2018-Jan-04 20:51N 38°39' W 009°06'0 0.0
2018-Jan-04 20:30N 38°39' W 009°06'0 0.0
2018-Jan-04 19:03N 38°39' W 009°06'0 0.0
2018-Jan-04 18:36N 38°39' W 009°06'0 0.0
2018-Jan-04 18:30N 38°39' W 009°06'0 0.0
2018-Jan-04 18:00N 38°39' W 009°06'0 0.0
2018-Jan-04 17:30N 38°39' W 009°06'0 0.0
2018-Jan-04 15:12N 38°39' W 009°06'0 0.0
2018-Jan-04 14:44N 38°39' W 009°06'0 0.0
2018-Jan-04 14:07N 38°39' W 009°06'0 0.0
2018-Jan-04 13:55N 38°39' W 009°06'0 0.0
2018-Jan-04 13:25N 38°39' W 009°06'0 0.0
2018-Jan-04 12:37N 38°39' W 009°06'0 0.0
2018-Jan-04 11:49N 38°39' W 009°06'0 0.0
2018-Jan-04 11:28N 38°39' W 009°06'0 0.0
2018-Jan-04 10:40N 38°39' W 009°06'0 0.0
2018-Jan-04 10:13N 38°39' W 009°06'0 0.0
2018-Jan-04 09:55N 38°39' W 009°06'0 0.0
2018-Jan-04 07:43N 38°39' W 009°06'0 0.0
2018-Jan-04 07:22N 38°39' W 009°06'0 0.0
2018-Jan-04 06:46N 38°39' W 009°06'0 0.0
2018-Jan-04 06:19N 38°39' W 009°06'0 0.0
2018-Jan-04 05:58N 38°39' W 009°06'0 0.0
2018-Jan-04 05:25N 38°39' W 009°06'0 0.0
2018-Jan-04 00:07N 38°39' W 009°06'0 0.0
2018-Jan-03 23:52N 38°39' W 009°06'0 0.0
2018-Jan-03 22:22N 38°39' W 009°06'0 0.0
2018-Jan-03 21:43N 38°39' W 009°06'0 0.0
2018-Jan-03 21:25N 38°39' W 009°06'0 0.0
2018-Jan-03 20:01N 38°39' W 009°06'0 0.0
2018-Jan-03 19:37N 38°39' W 009°06'0 0.0
2018-Jan-03 19:25N 38°39' W 009°06'0 0.0
2018-Jan-03 18:58N 38°39' W 009°06'0 0.0
2018-Jan-03 17:13N 38°39' W 009°06'0 0.0
2018-Jan-03 16:58N 38°39' W 009°06'0 0.0
2018-Jan-03 16:25N 38°39' W 009°06'0 0.0
2018-Jan-03 13:20N 38°39' W 009°06'1 2.4
2018-Jan-03 13:00N 38°39' W 009°06'3 5.3
2018-Jan-03 12:22N 38°41' W 009°10'3 7.1
2018-Jan-03 11:54N 38°41' W 009°14'3 6.4
2018-Jan-03 11:30N 38°41' W 009°17'3 6.2
2018-Jan-03 10:58N 38°41' W 009°21'3 5.5
2018-Jan-03 10:29N 38°42' W 009°24'0 0.9
2018-Jan-03 10:00N 38°42' W 009°25'0 0.0
2018-Jan-03 09:30N 38°42' W 009°25'0 0.0
2018-Jan-03 08:54N 38°42' W 009°25'0 0.0
2018-Jan-03 07:33N 38°42' W 009°25'0 0.0
2018-Jan-03 07:18N 38°42' W 009°25'0 0.0
2018-Jan-03 06:48N 38°42' W 009°25'0 0.0
2018-Jan-03 06:24N 38°42' W 009°25'0 0.0
2018-Jan-03 05:54N 38°42' W 009°25'0 0.0
2018-Jan-03 05:18N 38°42' W 009°25'0 0.0
2018-Jan-03 04:48N 38°42' W 009°25'0 0.0
2018-Jan-03 04:03N 38°42' W 009°25'0 0.0
2018-Jan-03 03:48N 38°42' W 009°25'0 0.0
2018-Jan-03 03:12N 38°42' W 009°25'0 0.0
2018-Jan-03 02:54N 38°42' W 009°25'0 0.0
2018-Jan-03 01:54N 38°42' W 009°25'0 0.0
2018-Jan-03 01:15N 38°42' W 009°25'0 0.0
2018-Jan-03 00:06N 38°42' W 009°25'0 0.0
2018-Jan-03 00:00N 38°42' W 009°25'0 0.0
2018-Jan-02 23:12N 38°42' W 009°25'0 0.0
2018-Jan-02 22:42N 38°42' W 009°25'0 0.0
2018-Jan-02 22:30N 38°42' W 009°25'0 0.0
2018-Jan-02 21:06N 38°42' W 009°25'0 0.0
2018-Jan-02 21:00N 38°42' W 009°25'0 0.0
2018-Jan-02 20:12N 38°42' W 009°25'0 0.0
2018-Jan-02 19:54N 38°42' W 009°25'0 0.0
2018-Jan-02 19:30N 38°42' W 009°25'0 0.0
2018-Jan-02 18:33N 38°42' W 009°25'0 0.1
2018-Jan-02 18:27N 38°42' W 009°25'0 0.0
2018-Jan-02 16:48N 38°42' W 009°25'0 0.0
2018-Jan-02 15:48N 38°42' W 009°25'0 0.0
2018-Jan-02 15:09N 38°42' W 009°25'0 0.0
2018-Jan-02 14:48N 38°42' W 009°25'  

Dump ship's entire track history